map of LLK home
LLK - Airport
Location
City:  Lankaran, Lenkeran (Lankaran), Azerbaijan
Near (Alt.):Lenkoran
Name:Lankaran International Airport
ICAO:UBBL
IATA:LLK

Details
Type:Airport (Aerodrome, Airfield)
Use:International (customs port of entry)
Latitude:3844'47"N (38.746442)
Longitude:4849'05"E (48.818039)
Datum:WGS 1984
Elevation:30 ft (9 m)
Variation:5.83E (WMM2015v2 magnetic declination)
0.07 annual change
Runways:1
Longest:5172 × 132 ft (1576 × 40 m), paved

Time
Time Zone:UTC+4
Local Time:

Weather
METAR:UBBL 041400Z 11006KT 9999 BKN010 09/07 Q1033 R33/CLRD// NOSIG RMK MT OP
TAF:UBBL 040516Z 0406/0506 28006KT 8000 BKN010 OVC030 TX07/0411Z TN01/0502Z
BECMG 0408/0410 14006KT
TEMPO 0408/0418 5000 -RA BR BKN007 OVC020
TEMPO 0418/0506 3000 BR BKN004

Related Locations
Nearby:
Farthest:GMR: 11330 mi / 18233 km
Mangareva [Totegegie], Gambier Islands, PF

Find:

   beyond  
but within

Other Information
Maps:
NOTAMs:
Links:
Sources:

  
  • flag of Azerbaijan
  

Sectional Chart

Flight Planning
at skyvector.com

Satellite Image

Google Maps Satellite view

 

Copyright © 2004-2019 Karl L. Swartz. All rights reserved.
The Great Circle Mapper name and logo are trademarks of the Great Circle Mapper.
All other trademarks mentioned herein belong to their respective owners.
Please see credits for attibutions and further copyright information.

  Follow gcmap on Facebook Follow gcmap on Twitter GCmap on LinkedIn

hCard Microformat

Geo Microformat